sensor_id;sensor_type;location;lat;lon;timestamp;pressure;altitude;pressure_sealevel;temperature;humidity
12987;BME280;58897;51.960;5.582;2023-02-03T00:00:27;102182.09;;;7.79;100.00
12987;BME280;58897;51.960;5.582;2023-02-03T00:02:55;102199.94;;;7.80;100.00
12987;BME280;58897;51.960;5.582;2023-02-03T00:05:22;102203.34;;;7.82;100.00
12987;BME280;58897;51.960;5.582;2023-02-03T00:07:49;102222.19;;;7.82;100.00
12987;BME280;58897;51.960;5.582;2023-02-03T00:10:17;102207.03;;;7.81;100.00
12987;BME280;58897;51.960;5.582;2023-02-03T00:12:48;102212.41;;;7.81;100.00
12987;BME280;58897;51.960;5.582;2023-02-03T00:15:15;102214.13;;;7.82;100.00
12987;BME280;58897;51.960;5.582;2023-02-03T00:17:42;102210.69;;;7.80;100.00
12987;BME280;58897;51.960;5.582;2023-02-03T00:20:09;102219.63;;;7.81;100.00
12987;BME280;58897;51.960;5.582;2023-02-03T00:22:35;102226.84;;;7.80;100.00
12987;BME280;58897;51.960;5.582;2023-02-03T00:25:02;102228.44;;;7.83;100.00
12987;BME280;58897;51.960;5.582;2023-02-03T00:27:29;102221.22;;;7.83;100.00
12987;BME280;58897;51.960;5.582;2023-02-03T00:29:55;102232.72;;;7.85;100.00
12987;BME280;58897;51.960;5.582;2023-02-03T00:32:22;102249.88;;;7.84;100.00
12987;BME280;58897;51.960;5.582;2023-02-03T00:34:48;102238.13;;;7.85;100.00
12987;BME280;58897;51.960;5.582;2023-02-03T00:37:15;102240.72;;;7.87;100.00
12987;BME280;58897;51.960;5.582;2023-02-03T00:39:41;102240.72;;;7.87;100.00
12987;BME280;58897;51.960;5.582;2023-02-03T00:42:08;102243.28;;;7.88;100.00
12987;BME280;58897;51.960;5.582;2023-02-03T00:44:34;102246.09;;;7.87;100.00
12987;BME280;58897;51.960;5.582;2023-02-03T00:47:00;102242.41;;;7.88;100.00
12987;BME280;58897;51.960;5.582;2023-02-03T00:49:27;102247.91;;;7.86;100.00
12987;BME280;58897;51.960;5.582;2023-02-03T00:51:53;102252.44;;;7.86;100.00
12987;BME280;58897;51.960;5.582;2023-02-03T00:54:20;102239.63;;;7.89;100.00
12987;BME280;58897;51.960;5.582;2023-02-03T00:56:46;102243.78;;;7.93;100.00
12987;BME280;58897;51.960;5.582;2023-02-03T00:59:12;102245.75;;;7.91;100.00
12987;BME280;58897;51.960;5.582;2023-02-03T01:01:39;102236.59;;;7.94;100.00
12987;BME280;58897;51.960;5.582;2023-02-03T01:04:05;102239.06;;;7.97;100.00
12987;BME280;58897;51.960;5.582;2023-02-03T01:06:32;102240.16;;;7.94;100.00
12987;BME280;58897;51.960;5.582;2023-02-03T01:09:00;102232.28;;;7.91;100.00
12987;BME280;58897;51.960;5.582;2023-02-03T01:11:27;102226.78;;;7.93;100.00
12987;BME280;58897;51.960;5.582;2023-02-03T01:13:55;102215.41;;;7.89;100.00
12987;BME280;58897;51.960;5.582;2023-02-03T01:16:24;102213.47;;;7.91;100.00
12987;BME280;58897;51.960;5.582;2023-02-03T01:18:54;102226.16;;;7.89;100.00
12987;BME280;58897;51.960;5.582;2023-02-03T01:21:23;102211.13;;;7.87;100.00
12987;BME280;58897;51.960;5.582;2023-02-03T01:23:50;102202.06;;;7.88;100.00
12987;BME280;58897;51.960;5.582;2023-02-03T01:26:19;102219.78;;;7.90;100.00
12987;BME280;58897;51.960;5.582;2023-02-03T01:28:57;102213.59;;;7.90;100.00
12987;BME280;58897;51.960;5.582;2023-02-03T01:31:26;102209.03;;;7.90;100.00
12987;BME280;58897;51.960;5.582;2023-02-03T01:33:53;102205.50;;;7.90;100.00
12987;BME280;58897;51.960;5.582;2023-02-03T01:36:23;102205.72;;;7.87;100.00
12987;BME280;58897;51.960;5.582;2023-02-03T01:38:49;102211.84;;;7.89;100.00
12987;BME280;58897;51.960;5.582;2023-02-03T01:41:18;102200.34;;;7.87;100.00
12987;BME280;58897;51.960;5.582;2023-02-03T01:43:48;102193.75;;;7.91;100.00
12987;BME280;58897;51.960;5.582;2023-02-03T01:46:21;102176.88;;;7.89;100.00
12987;BME280;58897;51.960;5.582;2023-02-03T01:48:51;102174.06;;;7.90;100.00
12987;BME280;58897;51.960;5.582;2023-02-03T01:51:19;102151.94;;;7.87;100.00
12987;BME280;58897;51.960;5.582;2023-02-03T01:53:45;102161.81;;;7.86;100.00
12987;BME280;58897;51.960;5.582;2023-02-03T01:56:12;102156.31;;;7.88;100.00
12987;BME280;58897;51.960;5.582;2023-02-03T01:58:40;102165.38;;;7.87;100.00
12987;BME280;58897;51.960;5.582;2023-02-03T02:01:08;102184.22;;;7.87;100.00
12987;BME280;58897;51.960;5.582;2023-02-03T02:03:38;102183.13;;;7.89;100.00
12987;BME280;58897;51.960;5.582;2023-02-03T02:06:08;102182.13;;;7.90;100.00
12987;BME280;58897;51.960;5.582;2023-02-03T02:08:36;102179.56;;;7.89;100.00
12987;BME280;58897;51.960;5.582;2023-02-03T02:11:04;102179.66;;;7.87;100.00
12987;BME280;58897;51.960;5.582;2023-02-03T02:13:32;102155.44;;;7.87;100.00
12987;BME280;58897;51.960;5.582;2023-02-03T02:16:18;102151.69;;;7.90;100.00
12987;BME280;58897;51.960;5.582;2023-02-03T02:21:36;102149.22;;;7.87;100.00
12987;BME280;58897;51.960;5.582;2023-02-03T02:41:09;102169.09;;;7.97;100.00
12987;BME280;58897;51.960;5.582;2023-02-03T02:43:42;102163.72;;;7.97;100.00
12987;BME280;58897;51.960;5.582;2023-02-03T02:46:14;102177.16;;;7.97;100.00
12987;BME280;58897;51.960;5.582;2023-02-03T02:49:03;102152.09;;;7.96;100.00
12987;BME280;58897;51.960;5.582;2023-02-03T02:51:32;102153.91;;;7.96;100.00
12987;BME280;58897;51.960;5.582;2023-02-03T02:54:03;102168.09;;;7.98;100.00
12987;BME280;58897;51.960;5.582;2023-02-03T02:56:32;102151.13;;;7.97;100.00
12987;BME280;58897;51.960;5.582;2023-02-03T02:59:01;102152.22;;;7.95;100.00
12987;BME280;58897;51.960;5.582;2023-02-03T03:01:29;102141.09;;;7.99;100.00
12987;BME280;58897;51.960;5.582;2023-02-03T03:03:57;102139.59;;;7.95;100.00
12987;BME280;58897;51.960;5.582;2023-02-03T03:06:31;102118.06;;;7.95;100.00
12987;BME280;58897;51.960;5.582;2023-02-03T03:09:07;102125.81;;;8.00;100.00
12987;BME280;58897;51.960;5.582;2023-02-03T03:11:39;102132.03;;;8.00;100.00
12987;BME280;58897;51.960;5.582;2023-02-03T03:14:07;102121.28;;;8.00;100.00
12987;BME280;58897;51.960;5.582;2023-02-03T03:16:37;102118.47;;;8.02;100.00
12987;BME280;58897;51.960;5.582;2023-02-03T03:19:09;102111.50;;;7.99;100.00
12987;BME280;58897;51.960;5.582;2023-02-03T03:21:45;102128.50;;;8.00;100.00
12987;BME280;58897;51.960;5.582;2023-02-03T03:24:16;102130.22;;;8.01;100.00
12987;BME280;58897;51.960;5.582;2023-02-03T03:29:29;102142.47;;;8.05;100.00
12987;BME280;58897;51.960;5.582;2023-02-03T03:31:56;102136.44;;;8.01;100.00
12987;BME280;58897;51.960;5.582;2023-02-03T03:34:23;102143.66;;;8.01;100.00
12987;BME280;58897;51.960;5.582;2023-02-03T03:39:34;102135.59;;;8.01;100.00
12987;BME280;58897;51.960;5.582;2023-02-03T03:42:13;102132.16;;;7.99;100.00
12987;BME280;58897;51.960;5.582;2023-02-03T03:44:56;102136.31;;;8.03;100.00
12987;BME280;58897;51.960;5.582;2023-02-03T03:48:27;102132.44;;;8.07;100.00
12987;BME280;58897;51.960;5.582;2023-02-03T03:50:31;102127.78;;;8.09;100.00
12987;BME280;58897;51.960;5.582;2023-02-03T03:53:00;102144.06;;;8.07;100.00
12987;BME280;58897;51.960;5.582;2023-02-03T03:55:30;102147.84;;;8.05;100.00
12987;BME280;58897;51.960;5.582;2023-02-03T03:58:02;102154.09;;;8.05;100.00
12987;BME280;58897;51.960;5.582;2023-02-03T04:00:32;102162.78;;;8.09;100.00
12987;BME280;58897;51.960;5.582;2023-02-03T04:03:05;102156.78;;;8.05;100.00
12987;BME280;58897;51.960;5.582;2023-02-03T04:05:33;102162.19;;;8.05;100.00
12987;BME280;58897;51.960;5.582;2023-02-03T04:07:59;102163.66;;;8.09;100.00
12987;BME280;58897;51.960;5.582;2023-02-03T04:10:39;102169.25;;;8.06;100.00
12987;BME280;58897;51.960;5.582;2023-02-03T04:13:07;102160.97;;;8.09;100.00
12987;BME280;58897;51.960;5.582;2023-02-03T04:15:34;102170.25;;;8.05;100.00
12987;BME280;58897;51.960;5.582;2023-02-03T04:18:01;102162.78;;;8.09;100.00
12987;BME280;58897;51.960;5.582;2023-02-03T04:20:29;102155.56;;;8.09;100.00
12987;BME280;58897;51.960;5.582;2023-02-03T04:22:56;102149.47;;;8.07;100.00
12987;BME280;58897;51.960;5.582;2023-02-03T04:25:23;102152.25;;;8.06;100.00
12987;BME280;58897;51.960;5.582;2023-02-03T04:27:50;102162.03;;;8.07;100.00
12987;BME280;58897;51.960;5.582;2023-02-03T04:30:17;102156.44;;;8.10;100.00
12987;BME280;58897;51.960;5.582;2023-02-03T04:32:44;102150.19;;;8.09;100.00
12987;BME280;58897;51.960;5.582;2023-02-03T04:35:12;102150.31;;;8.08;100.00
12987;BME280;58897;51.960;5.582;2023-02-03T04:37:39;102158.13;;;8.11;100.00
12987;BME280;58897;51.960;5.582;2023-02-03T04:40:06;102151.78;;;8.12;100.00
12987;BME280;58897;51.960;5.582;2023-02-03T04:42:35;102149.09;;;8.12;100.00
12987;BME280;58897;51.960;5.582;2023-02-03T04:45:03;102132.94;;;8.12;100.00
12987;BME280;58897;51.960;5.582;2023-02-03T04:47:30;102126.47;;;8.15;100.00
12987;BME280;58897;51.960;5.582;2023-02-03T04:49:56;102128.31;;;8.14;100.00
12987;BME280;58897;51.960;5.582;2023-02-03T04:52:23;102132.94;;;8.12;100.00
12987;BME280;58897;51.960;5.582;2023-02-03T04:54:49;102130.03;;;8.15;100.00
12987;BME280;58897;51.960;5.582;2023-02-03T04:57:15;102145.19;;;8.16;100.00
12987;BME280;58897;51.960;5.582;2023-02-03T04:59:42;102144.59;;;8.13;100.00
12987;BME280;58897;51.960;5.582;2023-02-03T05:02:08;102139.06;;;8.14;100.00
12987;BME280;58897;51.960;5.582;2023-02-03T05:04:35;102133.69;;;8.14;100.00
12987;BME280;58897;51.960;5.582;2023-02-03T05:07:01;102139.19;;;8.13;100.00
12987;BME280;58897;51.960;5.582;2023-02-03T05:09:28;102144.34;;;8.16;100.00
12987;BME280;58897;51.960;5.582;2023-02-03T05:11:54;102138.34;;;8.12;100.00
12987;BME280;58897;51.960;5.582;2023-02-03T05:14:21;102134.69;;;8.13;100.00
12987;BME280;58897;51.960;5.582;2023-02-03T05:16:47;102126.59;;;8.13;100.00
12987;BME280;58897;51.960;5.582;2023-02-03T05:19:14;102121.31;;;8.12;100.00
12987;BME280;58897;51.960;5.582;2023-02-03T05:21:40;102124.00;;;8.12;100.00
12987;BME280;58897;51.960;5.582;2023-02-03T05:24:07;102130.50;;;8.09;100.00
12987;BME280;58897;51.960;5.582;2023-02-03T05:26:34;102126.84;;;8.10;100.00
12987;BME280;58897;51.960;5.582;2023-02-03T05:29:02;102146.53;;;8.11;100.00
12987;BME280;58897;51.960;5.582;2023-02-03T05:31:28;102144.59;;;8.13;100.00
12987;BME280;58897;51.960;5.582;2023-02-03T05:33:55;102159.88;;;8.12;100.00
12987;BME280;58897;51.960;5.582;2023-02-03T05:36:21;102147.28;;;8.13;100.00
12987;BME280;58897;51.960;5.582;2023-02-03T05:38:48;102152.16;;;8.07;100.00
12987;BME280;58897;51.960;5.582;2023-02-03T05:41:14;102151.06;;;8.10;100.00
12987;BME280;58897;51.960;5.582;2023-02-03T05:43:59;102153.84;;;8.08;100.00
12987;BME280;58897;51.960;5.582;2023-02-03T05:46:26;102143.94;;;8.09;100.00
12987;BME280;58897;51.960;5.582;2023-02-03T05:48:52;102134.28;;;8.06;100.00
12987;BME280;58897;51.960;5.582;2023-02-03T05:51:18;102144.16;;;8.06;100.00
12987;BME280;58897;51.960;5.582;2023-02-03T05:53:45;102144.06;;;8.07;100.00
12987;BME280;58897;51.960;5.582;2023-02-03T05:56:11;102146.75;;;8.07;100.00
12987;BME280;58897;51.960;5.582;2023-02-03T05:58:38;102131.81;;;8.03;100.00
12987;BME280;58897;51.960;5.582;2023-02-03T06:01:04;102127.19;;;8.05;100.00
12987;BME280;58897;51.960;5.582;2023-02-03T06:03:30;102127.41;;;8.02;100.00
12987;BME280;58897;51.960;5.582;2023-02-03T06:05:57;102132.03;;;8.00;100.00
12987;BME280;58897;51.960;5.582;2023-02-03T06:08:24;102144.31;;;8.04;100.00
12987;BME280;58897;51.960;5.582;2023-02-03T06:10:58;102138.06;;;8.04;100.00
12987;BME280;58897;51.960;5.582;2023-02-03T06:13:26;102132.16;;;7.99;100.00
12987;BME280;58897;51.960;5.582;2023-02-03T06:15:52;102134.72;;;8.00;100.00
12987;BME280;58897;51.960;5.582;2023-02-03T06:18:19;102137.53;;;7.99;100.00
12987;BME280;58897;51.960;5.582;2023-02-03T06:20:45;102136.56;;;8.00;100.00
12987;BME280;58897;51.960;5.582;2023-02-03T06:23:12;102133.13;;;7.98;100.00
12987;BME280;58897;51.960;5.582;2023-02-03T06:25:39;102133.13;;;7.98;100.00
12987;BME280;58897;51.960;5.582;2023-02-03T06:28:05;102141.09;;;7.99;100.00
12987;BME280;58897;51.960;5.582;2023-02-03T06:30:31;102137.66;;;7.97;100.00
12987;BME280;58897;51.960;5.582;2023-02-03T06:32:58;102139.59;;;7.95;100.00
12987;BME280;58897;51.960;5.582;2023-02-03T06:35:24;102144.25;;;7.93;100.00
12987;BME280;58897;51.960;5.582;2023-02-03T06:37:51;102135.94;;;7.96;100.00
12987;BME280;58897;51.960;5.582;2023-02-03T06:40:17;102147.44;;;7.98;100.00
12987;BME280;58897;51.960;5.582;2023-02-03T06:42:45;102161.88;;;7.97;100.00
12987;BME280;58897;51.960;5.582;2023-02-03T06:45:12;102158.19;;;7.98;100.00
12987;BME280;58897;51.960;5.582;2023-02-03T06:47:40;102163.94;;;7.94;100.00
12987;BME280;58897;51.960;5.582;2023-02-03T06:50:08;102178.03;;;7.97;100.00
12987;BME280;58897;51.960;5.582;2023-02-03T06:52:34;102178.13;;;7.96;100.00
12987;BME280;58897;51.960;5.582;2023-02-03T06:55:02;102156.72;;;7.94;100.00
12987;BME280;58897;51.960;5.582;2023-02-03T06:57:29;102157.69;;;7.93;100.00
12987;BME280;58897;51.960;5.582;2023-02-03T06:59:55;102162.34;;;7.91;100.00
12987;BME280;58897;51.960;5.582;2023-02-03T07:02:22;102174.69;;;7.94;100.00
12987;BME280;58897;51.960;5.582;2023-02-03T07:04:48;102178.88;;;7.98;100.00
12987;BME280;58897;51.960;5.582;2023-02-03T07:07:15;102185.34;;;7.95;100.00
12987;BME280;58897;51.960;5.582;2023-02-03T07:09:42;102182.78;;;7.94;100.00
12987;BME280;58897;51.960;5.582;2023-02-03T07:12:09;102187.28;;;7.93;100.00
12987;BME280;58897;51.960;5.582;2023-02-03T07:14:35;102202.47;;;7.94;100.00
12987;BME280;58897;51.960;5.582;2023-02-03T07:17:05;102189.88;;;7.95;100.00
12987;BME280;58897;51.960;5.582;2023-02-03T07:19:32;102196.97;;;7.96;100.00
12987;BME280;58897;51.960;5.582;2023-02-03T07:21:58;102203.09;;;7.98;100.00
12987;BME280;58897;51.960;5.582;2023-02-03T07:24:25;102212.03;;;7.98;100.00
12987;BME280;58897;51.960;5.582;2023-02-03T07:26:52;102209.34;;;7.98;100.00
12987;BME280;58897;51.960;5.582;2023-02-03T07:29:18;102204.69;;;8.00;100.00
12987;BME280;58897;51.960;5.582;2023-02-03T07:31:44;102207.63;;;7.97;100.00
12987;BME280;58897;51.960;5.582;2023-02-03T07:34:11;102201.59;;;7.94;100.00
12987;BME280;58897;51.960;5.582;2023-02-03T07:36:38;102205.78;;;7.98;100.00
12987;BME280;58897;51.960;5.582;2023-02-03T07:39:04;102206.88;;;7.95;100.00
12987;BME280;58897;51.960;5.582;2023-02-03T07:41:31;102203.44;;;7.93;100.00
12987;BME280;58897;51.960;5.582;2023-02-03T07:43:57;102207.00;;;7.94;100.00
12987;BME280;58897;51.960;5.582;2023-02-03T07:46:23;102216.53;;;7.98;100.00
12987;BME280;58897;51.960;5.582;2023-02-03T07:48:50;102201.47;;;7.95;100.00
12987;BME280;58897;51.960;5.582;2023-02-03T07:51:16;102213.75;;;7.99;100.00
12987;BME280;58897;51.960;5.582;2023-02-03T07:53:43;102201.91;;;8.02;100.00
12987;BME280;58897;51.960;5.582;2023-02-03T07:56:10;102205.34;;;8.04;100.00
12987;BME280;58897;51.960;5.582;2023-02-03T07:58:37;102212.44;;;8.05;100.00
12987;BME280;58897;51.960;5.582;2023-02-03T08:01:12;102218.94;;;8.14;100.00
12987;BME280;58897;51.960;5.582;2023-02-03T08:03:39;102214.03;;;8.07;100.00
12987;BME280;58897;51.960;5.582;2023-02-03T08:06:07;102214.91;;;8.08;100.00
12987;BME280;58897;51.960;5.582;2023-02-03T08:08:34;102214.03;;;8.07;100.00
12987;BME280;58897;51.960;5.582;2023-02-03T08:11:03;102211.13;;;8.11;100.00
12987;BME280;58897;51.960;5.582;2023-02-03T08:13:30;102203.56;;;8.16;100.00
12987;BME280;58897;51.960;5.582;2023-02-03T08:15:56;102219.47;;;8.19;100.00
12987;BME280;58897;51.960;5.582;2023-02-03T08:18:23;102224.84;;;8.19;100.00
12987;BME280;58897;51.960;5.582;2023-02-03T08:20:50;102234.66;;;8.20;100.00
12987;BME280;58897;51.960;5.582;2023-02-03T08:23:16;102239.06;;;8.21;100.00
12987;BME280;58897;51.960;5.582;2023-02-03T08:25:43;102252.19;;;8.25;100.00
12987;BME280;58897;51.960;5.582;2023-02-03T08:28:09;102244.00;;;8.27;100.00
12987;BME280;58897;51.960;5.582;2023-02-03T08:30:37;102256.06;;;8.34;100.00
12987;BME280;58897;51.960;5.582;2023-02-03T08:33:03;102250.47;;;8.37;100.00
12987;BME280;58897;51.960;5.582;2023-02-03T08:35:30;102248.59;;;8.37;100.00
12987;BME280;58897;51.960;5.582;2023-02-03T08:37:56;102247.63;;;8.38;100.00
12987;BME280;58897;51.960;5.582;2023-02-03T08:40:23;102246.31;;;8.44;100.00
12987;BME280;58897;51.960;5.582;2023-02-03T08:42:49;102239.09;;;8.44;100.00
12987;BME280;58897;51.960;5.582;2023-02-03T08:45:16;102240.72;;;8.47;100.00
12987;BME280;58897;51.960;5.582;2023-02-03T08:47:42;102243.91;;;8.52;100.00
12987;BME280;58897;51.960;5.582;2023-02-03T08:50:09;102237.66;;;8.51;100.00
12987;BME280;58897;51.960;5.582;2023-02-03T08:52:36;102236.69;;;8.52;100.00
12987;BME280;58897;51.960;5.582;2023-02-03T08:55:02;102252.72;;;8.54;100.00
12987;BME280;58897;51.960;5.582;2023-02-03T08:57:34;102258.84;;;8.56;100.00
12987;BME280;58897;51.960;5.582;2023-02-03T09:00:03;102250.66;;;8.57;100.00
12987;BME280;58897;51.960;5.582;2023-02-03T09:02:30;102252.59;;;8.55;100.00
12987;BME280;58897;51.960;5.582;2023-02-03T09:04:57;102264.75;;;8.61;100.00
12987;BME280;58897;51.960;5.582;2023-02-03T09:07:24;102264.66;;;8.62;100.00
12987;BME280;58897;51.960;5.582;2023-02-03T09:09:51;102272.50;;;8.65;100.00
12987;BME280;58897;51.960;5.582;2023-02-03T09:12:17;102263.31;;;8.68;100.00
12987;BME280;58897;51.960;5.582;2023-02-03T09:14:44;102267.50;;;8.72;100.00
12987;BME280;58897;51.960;5.582;2023-02-03T09:17:10;102275.22;;;8.77;100.00
12987;BME280;58897;51.960;5.582;2023-02-03T09:19:37;102278.78;;;8.77;100.00
12987;BME280;58897;51.960;5.582;2023-02-03T09:22:04;102283.81;;;8.82;100.00
12987;BME280;58897;51.960;5.582;2023-02-03T09:24:30;102283.56;;;8.85;100.00
12987;BME280;58897;51.960;5.582;2023-02-03T09:26:57;102279.91;;;8.86;100.00
12987;BME280;58897;51.960;5.582;2023-02-03T09:29:26;102270.22;;;8.83;100.00
12987;BME280;58897;51.960;5.582;2023-02-03T09:31:53;102275.38;;;8.86;100.00
12987;BME280;58897;51.960;5.582;2023-02-03T09:34:20;102288.50;;;8.91;100.00
12987;BME280;58897;51.960;5.582;2023-02-03T09:36:47;102286.06;;;8.99;100.00
12987;BME280;58897;51.960;5.582;2023-02-03T09:39:14;102279.81;;;8.98;100.00
12987;BME280;58897;51.960;5.582;2023-02-03T09:44:21;102276.91;;;9.01;100.00
12987;BME280;58897;51.960;5.582;2023-02-03T09:46:54;102287.03;;;8.98;100.00
12987;BME280;58897;51.960;5.582;2023-02-03T09:49:26;102283.25;;;9.00;100.00
12987;BME280;58897;51.960;5.582;2023-02-03T09:52:09;102275.41;;;8.97;100.00
12987;BME280;58897;51.960;5.582;2023-02-03T09:54:54;102294.16;;;8.99;100.00
12987;BME280;58897;51.960;5.582;2023-02-03T09:57:26;102301.88;;;9.03;100.00
12987;BME280;58897;51.960;5.582;2023-02-03T09:59:55;102304.09;;;8.98;100.00
12987;BME280;58897;51.960;5.582;2023-02-03T10:05:13;102305.81;;;8.99;100.00
12987;BME280;58897;51.960;5.582;2023-02-03T10:07:46;102306.91;;;8.97;100.00
12987;BME280;58897;51.960;5.582;2023-02-03T10:10:38;102313.91;;;8.99;100.00
12987;BME280;58897;51.960;5.582;2023-02-03T10:15:56;102312.03;;;9.00;100.00
12987;BME280;58897;51.960;5.582;2023-02-03T10:18:37;102316.22;;;9.04;100.00
12987;BME280;58897;51.960;5.582;2023-02-03T10:23:53;102309.34;;;9.00;100.00
12987;BME280;58897;51.960;5.582;2023-02-03T10:26:25;102314.63;;;9.01;100.00
12987;BME280;58897;51.960;5.582;2023-02-03T10:28:54;102318.19;;;9.02;100.00
12987;BME280;58897;51.960;5.582;2023-02-03T10:31:25;102310.72;;;9.05;100.00
12987;BME280;58897;51.960;5.582;2023-02-03T10:33:59;102314.13;;;9.07;100.00
12987;BME280;58897;51.960;5.582;2023-02-03T10:39:42;102315.22;;;9.05;100.00
12987;BME280;58897;51.960;5.582;2023-02-03T10:42:11;102324.59;;;9.12;100.00
12987;BME280;58897;51.960;5.582;2023-02-03T10:44:43;102320.66;;;9.16;100.00
12987;BME280;58897;51.960;5.582;2023-02-03T10:47:24;102316.88;;;9.18;100.00
12987;BME280;58897;51.960;5.582;2023-02-03T10:49:54;102328.28;;;9.22;100.00
12987;BME280;58897;51.960;5.582;2023-02-03T10:52:31;102331.72;;;9.24;100.00
12987;BME280;58897;51.960;5.582;2023-02-03T10:55:13;102340.31;;;9.29;100.00
12987;BME280;58897;51.960;5.582;2023-02-03T10:57:54;102341.03;;;9.31;100.00
12987;BME280;58897;51.960;5.582;2023-02-03T11:00:22;102335.66;;;9.31;100.00
12987;BME280;58897;51.960;5.582;2023-02-03T11:03:00;102332.63;;;9.36;100.00
12987;BME280;58897;51.960;5.582;2023-02-03T11:05:28;102299.66;;;9.43;100.00
12987;BME280;58897;51.960;5.582;2023-02-03T11:07:55;102320.25;;;9.55;100.00
12987;BME280;58897;51.960;5.582;2023-02-03T11:10:33;102319.41;;;9.44;100.00
12987;BME280;58897;51.960;5.582;2023-02-03T11:13:24;102323.06;;;9.43;100.00
12987;BME280;58897;51.960;5.582;2023-02-03T11:15:59;102327.34;;;9.45;100.00
12987;BME280;58897;51.960;5.582;2023-02-03T11:20:59;102328.72;;;9.51;100.00
12987;BME280;58897;51.960;5.582;2023-02-03T11:23:25;102330.19;;;9.55;100.00
12987;BME280;58897;51.960;5.582;2023-02-03T11:25:52;102323.56;;;9.59;100.00
12987;BME280;58897;51.960;5.582;2023-02-03T11:28:18;102317.81;;;9.63;100.00
12987;BME280;58897;51.960;5.582;2023-02-03T11:30:54;102331.53;;;9.60;100.00
12987;BME280;58897;51.960;5.582;2023-02-03T11:33:25;102334.13;;;9.62;100.00
12987;BME280;58897;51.960;5.582;2023-02-03T11:36:02;102336.94;;;9.60;100.00
12987;BME280;58897;51.960;5.582;2023-02-03T11:38:32;102331.16;;;9.65;100.00
12987;BME280;58897;51.960;5.582;2023-02-03T11:41:02;102325.78;;;9.65;100.00
12987;BME280;58897;51.960;5.582;2023-02-03T11:43:29;102321.38;;;9.64;100.00
12987;BME280;58897;51.960;5.582;2023-02-03T11:46:14;102329.59;;;9.73;100.00
12987;BME280;58897;51.960;5.582;2023-02-03T11:49:03;102332.75;;;9.67;100.00
12987;BME280;58897;51.960;5.582;2023-02-03T11:54:30;102326.50;;;9.78;100.00
12987;BME280;58897;51.960;5.582;2023-02-03T12:01:09;102321.13;;;9.89;100.00
12987;BME280;58897;51.960;5.582;2023-02-03T12:14:01;102311.16;;;10.12;100.00
12987;BME280;58897;51.960;5.582;2023-02-03T12:19:26;102323.16;;;10.41;100.00
12987;BME280;58897;51.960;5.582;2023-02-03T12:25:02;102349.13;;;10.21;100.00
12987;BME280;58897;51.960;5.582;2023-02-03T12:30:27;102345.19;;;10.03;100.00
12987;BME280;58897;51.960;5.582;2023-02-03T12:33:00;102349.84;;;10.12;100.00
12987;BME280;58897;51.960;5.582;2023-02-03T12:35:37;102348.38;;;10.08;100.00
12987;BME280;58897;51.960;5.582;2023-02-03T12:38:12;102349.22;;;10.09;100.00
12987;BME280;58897;51.960;5.582;2023-02-03T12:40:45;102354.00;;;10.05;100.00
12987;BME280;58897;51.960;5.582;2023-02-03T12:46:11;102366.28;;;9.98;100.00
12987;BME280;58897;51.960;5.582;2023-02-03T12:48:54;102379.53;;;9.90;100.00
12987;BME280;58897;51.960;5.582;2023-02-03T12:51:48;102374.84;;;9.81;100.00
12987;BME280;58897;51.960;5.582;2023-02-03T12:54:27;102386.50;;;9.59;100.00
12987;BME280;58897;51.960;5.582;2023-02-03T12:57:09;102405.16;;;9.73;100.00
12987;BME280;58897;51.960;5.582;2023-02-03T12:59:40;102404.38;;;9.60;100.00
12987;BME280;58897;51.960;5.582;2023-02-03T13:02:15;102407.56;;;9.54;100.00
12987;BME280;58897;51.960;5.582;2023-02-03T13:04:49;102414.31;;;9.60;100.00
12987;BME280;58897;51.960;5.582;2023-02-03T13:10:16;102422.41;;;9.49;100.00
12987;BME280;58897;51.960;5.582;2023-02-03T13:12:49;102429.19;;;9.30;100.00
12987;BME280;58897;51.960;5.582;2023-02-03T13:18:00;102435.88;;;9.49;100.00
12987;BME280;58897;51.960;5.582;2023-02-03T13:20:31;102434.66;;;9.53;100.00
12987;BME280;58897;51.960;5.582;2023-02-03T13:23:05;102425.78;;;9.40;100.00
12987;BME280;58897;51.960;5.582;2023-02-03T13:25:52;102433.50;;;9.33;100.00
12987;BME280;58897;51.960;5.582;2023-02-03T13:28:39;102432.63;;;9.32;100.00
12987;BME280;58897;51.960;5.582;2023-02-03T13:31:58;102439.16;;;9.41;100.00
12987;BME280;58897;51.960;5.582;2023-02-03T13:42:46;102440.38;;;9.37;100.00
12987;BME280;58897;51.960;5.582;2023-02-03T13:45:27;102425.66;;;9.41;100.00
12987;BME280;58897;51.960;5.582;2023-02-03T13:48:07;102423.44;;;9.35;100.00
12987;BME280;58897;51.960;5.582;2023-02-03T13:50:35;102420.53;;;9.49;100.00
12987;BME280;58897;51.960;5.582;2023-02-03T13:53:20;102419.22;;;9.55;100.00
12987;BME280;58897;51.960;5.582;2023-02-03T13:56:02;102421.63;;;9.47;100.00
12987;BME280;58897;51.960;5.582;2023-02-03T13:58:32;102421.34;;;9.39;100.00
12987;BME280;58897;51.960;5.582;2023-02-03T14:01:01;102411.94;;;9.44;100.00
12987;BME280;58897;51.960;5.582;2023-02-03T14:05:57;102412.03;;;9.31;100.00
12987;BME280;58897;51.960;5.582;2023-02-03T14:19:08;102408.00;;;9.37;100.00
12987;BME280;58897;51.960;5.582;2023-02-03T14:21:43;102424.34;;;9.47;100.00
12987;BME280;58897;51.960;5.582;2023-02-03T14:24:11;102417.34;;;9.44;100.00
12987;BME280;58897;51.960;5.582;2023-02-03T14:26:46;102436.81;;;9.71;100.00
12987;BME280;58897;51.960;5.582;2023-02-03T14:29:27;102442.13;;;9.49;100.00
12987;BME280;58897;51.960;5.582;2023-02-03T14:32:05;102448.97;;;9.42;100.00
12987;BME280;58897;51.960;5.582;2023-02-03T14:34:44;102456.38;;;9.51;100.00
12987;BME280;58897;51.960;5.582;2023-02-03T14:37:21;102461.94;;;9.37;100.00
12987;BME280;58897;51.960;5.582;2023-02-03T14:45:43;102465.88;;;9.33;100.00
12987;BME280;58897;51.960;5.582;2023-02-03T14:56:46;102473.81;;;9.35;100.00